Time;durP1;ratioP1;P1;durP2;ratioP2;P2;SDS_P1;SDS_P2;PMS_P1;PMS_P2;Temp;Humidity;BMP_temperature;BMP_pressure;BME280_temperature;BME280_humidity;BME280_pressure;Samples;Min_cycle;Max_cycle;Signal;HPM_P1;HPM_P2
2022/12/20 00:00:44;;;;;;;1999.90;999.90;;;13.30;99.90;;;;;;5034729;28;20026;-79
2022/12/20 00:03:10;;;;;;;1999.90;999.90;;;13.30;99.90;;;;;;5032065;28;20045;-74
2022/12/20 00:05:40;;;;;;;1999.90;999.90;;;13.30;99.90;;;;;;5031826;28;20044;-74
2022/12/20 00:08:07;;;;;;;1999.90;999.90;;;13.30;99.90;;;;;;5032116;28;20052;-75
2022/12/20 00:10:37;;;;;;;1999.90;999.90;;;13.30;99.90;;;;;;5030648;28;20026;-74
2022/12/20 00:13:03;;;;;;;1999.90;999.90;;;13.40;99.90;;;;;;5031752;28;20033;-75
2022/12/20 00:15:30;;;;;;;1999.90;999.90;;;13.30;99.90;;;;;;5031791;28;20108;-74
2022/12/20 00:17:56;;;;;;;1999.90;999.90;;;13.30;99.90;;;;;;5031460;28;20075;-74
2022/12/20 00:20:21;;;;;;;1999.90;999.90;;;13.30;99.90;;;;;;5037251;28;20021;-74
2022/12/20 00:22:47;;;;;;;1999.90;999.90;;;13.30;99.90;;;;;;5050219;28;20070;-74
2022/12/20 00:25:13;;;;;;;1999.90;999.90;;;13.20;99.90;;;;;;5051403;28;20033;-74
2022/12/20 00:27:38;;;;;;;1999.90;999.90;;;13.20;99.90;;;;;;5051545;28;20032;-74
2022/12/20 00:30:05;;;;;;;1999.90;999.90;;;13.20;99.90;;;;;;5051823;28;20055;-78
2022/12/20 00:32:31;;;;;;;1999.90;999.90;;;13.10;99.90;;;;;;5051642;28;20013;-74
2022/12/20 00:34:56;;;;;;;1999.90;999.90;;;13.20;99.90;;;;;;5051765;28;20400;-74
2022/12/20 00:37:22;;;;;;;1999.90;999.90;;;13.10;99.90;;;;;;5051554;28;20060;-74
2022/12/20 00:39:47;;;;;;;1999.90;999.90;;;13.10;99.90;;;;;;5050280;28;20062;-74
2022/12/20 00:42:14;;;;;;;1999.90;999.90;;;13.10;99.90;;;;;;5051461;28;20025;-74
2022/12/20 00:44:40;;;;;;;1999.90;999.90;;;13.00;99.90;;;;;;5051619;28;20048;-74
2022/12/20 00:47:05;;;;;;;1999.90;999.90;;;13.00;99.90;;;;;;5051375;28;20029;-73
2022/12/20 00:49:31;;;;;;;1999.90;999.90;;;13.00;99.90;;;;;;5051737;28;20112;-74
2022/12/20 00:51:57;;;;;;;1999.90;999.90;;;13.00;99.90;;;;;;5051372;28;20100;-74
2022/12/20 00:54:22;;;;;;;1999.90;999.90;;;13.00;99.90;;;;;;5051844;28;20032;-75
2022/12/20 00:56:48;;;;;;;1999.90;999.90;;;12.90;99.90;;;;;;5051348;28;20110;-76
2022/12/20 00:59:14;;;;;;;1999.90;999.90;;;12.90;99.90;;;;;;5051524;28;20033;-74
2022/12/20 01:01:40;;;;;;;1999.90;999.90;;;12.80;99.90;;;;;;5051293;28;20496;-74
2022/12/20 01:04:05;;;;;;;1999.90;999.90;;;12.80;99.90;;;;;;5051568;28;20061;-74
2022/12/20 01:06:31;;;;;;;1999.90;999.90;;;12.80;99.90;;;;;;5051378;28;20028;-74
2022/12/20 01:08:57;;;;;;;1999.90;999.90;;;12.80;99.90;;;;;;5050288;28;20043;-77
2022/12/20 01:11:26;;;;;;;1999.90;999.90;;;12.80;99.90;;;;;;5051989;28;20052;-73
2022/12/20 01:13:54;;;;;;;1999.90;999.90;;;12.80;99.90;;;;;;5051157;28;20021;-74
2022/12/20 01:16:24;;;;;;;1999.90;999.90;;;12.80;99.90;;;;;;5051440;28;20087;-74
2022/12/20 01:18:51;;;;;;;1999.90;999.90;;;12.80;99.90;;;;;;5050384;28;20494;-74
2022/12/20 01:21:18;;;;;;;1999.90;999.90;;;12.80;99.90;;;;;;5054177;28;20108;-74
2022/12/20 01:23:43;;;;;;;1999.90;999.90;;;12.80;99.90;;;;;;5054620;28;20392;-74
2022/12/20 01:26:15;;;;;;;1999.90;999.90;;;12.80;99.90;;;;;;5054596;28;20067;-74
2022/12/20 01:28:44;;;;;;;1999.90;999.90;;;12.80;99.90;;;;;;5054447;28;20104;-74
2022/12/20 01:31:16;;;;;;;1999.90;999.90;;;12.70;99.90;;;;;;5057113;28;20090;-75
2022/12/20 01:33:42;;;;;;;1999.90;999.90;;;12.80;99.90;;;;;;5054986;28;20438;-74
2022/12/20 01:36:12;;;;;;;1999.90;999.90;;;12.80;99.90;;;;;;5054672;28;20492;-74
2022/12/20 01:38:37;;;;;;;1999.90;999.90;;;12.70;99.90;;;;;;5056476;28;20078;-79
2022/12/20 01:41:04;;;;;;;1999.90;999.90;;;12.70;99.90;;;;;;5053670;28;20032;-75
2022/12/20 01:43:51;;;;;;;1999.90;999.90;;;12.70;99.90;;;;;;5054428;28;20021;-75
2022/12/20 01:46:18;;;;;;;1999.90;999.90;;;12.70;99.90;;;;;;5054529;28;20028;-74
2022/12/20 01:48:52;;;;;;;1999.90;999.90;;;12.70;99.90;;;;;;5053080;28;20025;-79
2022/12/20 01:51:18;;;;;;;1999.90;999.90;;;12.70;99.90;;;;;;5056127;28;20017;-74
2022/12/20 01:53:44;;;;;;;1999.90;999.90;;;12.70;99.90;;;;;;5054596;28;20487;-74
2022/12/20 01:56:10;;;;;;;1999.90;999.90;;;12.70;99.90;;;;;;5054253;28;20025;-74
2022/12/20 01:58:38;;;;;;;1999.90;999.90;;;12.80;99.90;;;;;;5053039;28;20029;-73
2022/12/20 02:01:03;;;;;;;1999.90;999.90;;;12.80;99.90;;;;;;5054042;28;20035;-74
2022/12/20 02:03:31;;;;;;;1999.90;999.90;;;12.70;99.90;;;;;;5054016;28;20056;-74
2022/12/20 02:05:56;;;;;;;1999.90;999.90;;;12.70;99.90;;;;;;5054154;28;20032;-74
2022/12/20 02:08:22;;;;;;;1999.90;999.90;;;12.70;99.90;;;;;;5054345;28;20325;-74
2022/12/20 02:11:06;;;;;;;1999.90;999.90;;;12.80;99.90;;;;;;5053722;28;20416;-74
2022/12/20 02:13:54;;;;;;;1999.90;999.90;;;12.80;99.90;;;;;;5054134;28;20091;-74
2022/12/20 02:16:24;;;;;;;1999.90;999.90;;;12.80;99.90;;;;;;5054193;28;20021;-74
2022/12/20 02:19:07;;;;;;;1999.90;999.90;;;12.80;99.90;;;;;;5053162;28;20017;-74
2022/12/20 02:21:45;;;;;;;1999.90;999.90;;;12.80;99.90;;;;;;5053527;28;20107;-74
2022/12/20 02:25:02;;;;;;;1999.90;999.90;;;12.80;99.90;;;;;;5053820;28;20032;-74
2022/12/20 02:27:45;;;;;;;1999.90;999.90;;;12.80;99.90;;;;;;5044101;28;20037;-74
2022/12/20 02:30:15;;;;;;;1999.90;999.90;;;12.80;99.90;;;;;;5054457;28;20104;-79
2022/12/20 02:32:48;;;;;;;1999.90;999.90;;;12.80;99.90;;;;;;5054275;28;20021;-74
2022/12/20 02:35:18;;;;;;;1999.90;999.90;;;12.80;99.90;;;;;;5053100;28;20357;-74
2022/12/20 02:38:22;;;;;;;1999.90;999.90;;;12.80;99.90;;;;;;5053470;28;20033;-74
2022/12/20 02:40:50;;;;;;;1999.90;999.90;;;12.70;99.90;;;;;;5057117;28;20438;-74
2022/12/20 02:46:01;;;;;;;1999.90;999.90;;;12.70;99.90;;;;;;5053472;28;20040;-74
2022/12/20 02:48:32;;;;;;;1999.90;999.90;;;12.70;99.90;;;;;;5052981;28;20512;-74
2022/12/20 02:50:59;;;;;;;1999.90;999.90;;;12.70;99.90;;;;;;5053368;28;20553;-74
2022/12/20 02:53:25;;;;;;;1999.90;999.90;;;12.70;99.90;;;;;;5053086;28;20071;-74
2022/12/20 02:56:16;;;;;;;1999.90;999.90;;;12.70;99.90;;;;;;5052811;28;20028;-74
2022/12/20 02:58:54;;;;;;;1999.90;999.90;;;12.80;99.90;;;;;;5053105;28;20562;-74
2022/12/20 03:01:32;;;;;;;1999.90;999.90;;;12.80;99.90;;;;;;5052843;28;20044;-74
2022/12/20 03:03:59;;;;;;;1999.90;999.90;;;12.80;99.90;;;;;;5052821;28;20084;-80
2022/12/20 03:06:25;;;;;;;1999.90;999.90;;;12.90;99.90;;;;;;5055080;28;20032;-80
2022/12/20 03:08:50;;;;;;;1999.90;999.90;;;12.90;99.90;;;;;;5054234;28;20029;-74
2022/12/20 03:11:16;;;;;;;1999.90;999.90;;;12.90;99.90;;;;;;5052499;28;20029;-73
2022/12/20 03:13:42;;;;;;;1999.90;999.90;;;12.90;99.90;;;;;;5052512;28;20396;-74
2022/12/20 03:16:09;;;;;;;1999.90;999.90;;;12.90;99.90;;;;;;5053118;28;20477;-77
2022/12/20 03:18:35;;;;;;;1999.90;999.90;;;12.80;99.90;;;;;;5052234;28;20024;-74
2022/12/20 03:21:01;;;;;;;1999.90;999.90;;;12.80;99.90;;;;;;5052139;28;20400;-74
2022/12/20 03:23:27;;;;;;;1999.90;999.90;;;12.80;99.90;;;;;;5052375;28;20032;-74
2022/12/20 03:25:53;;;;;;;1999.90;999.90;;;12.90;99.90;;;;;;5052285;28;20029;-74
2022/12/20 03:28:18;;;;;;;1999.90;999.90;;;12.90;99.90;;;;;;5052779;28;20028;-74
2022/12/20 03:30:44;;;;;;;1999.90;999.90;;;13.00;99.90;;;;;;5052276;28;20389;-74
2022/12/20 03:33:10;;;;;;;1999.90;999.90;;;13.00;99.90;;;;;;5052287;28;20484;-75
2022/12/20 03:35:36;;;;;;;1999.90;999.90;;;13.00;99.90;;;;;;5052362;28;20036;-74
2022/12/20 03:38:01;;;;;;;1999.90;999.90;;;13.00;99.90;;;;;;5052578;28;20017;-74
2022/12/20 03:40:27;;;;;;;1999.90;999.90;;;12.90;99.90;;;;;;5052534;28;20033;-74
2022/12/20 03:42:53;;;;;;;1999.90;999.90;;;12.90;99.90;;;;;;5051324;28;20032;-74
2022/12/20 03:45:18;;;;;;;1999.90;999.90;;;12.90;99.90;;;;;;5052089;28;20029;-74
2022/12/20 03:47:44;;;;;;;1999.90;999.90;;;12.90;99.90;;;;;;5052078;28;20035;-74
2022/12/20 03:50:10;;;;;;;1999.90;999.90;;;12.90;99.90;;;;;;5051975;28;20031;-74
2022/12/20 03:52:37;;;;;;;1999.90;999.90;;;13.00;99.90;;;;;;5052221;28;20135;-74
2022/12/20 03:55:03;;;;;;;1999.90;999.90;;;12.90;99.90;;;;;;5051693;28;20025;-74
2022/12/20 03:57:29;;;;;;;1999.90;999.90;;;12.90;99.90;;;;;;5051355;28;20017;-73
2022/12/20 03:59:54;;;;;;;1999.90;999.90;;;12.90;99.90;;;;;;5055011;28;20489;-75
2022/12/20 04:02:21;;;;;;;1999.90;999.90;;;12.90;99.90;;;;;;5051915;28;20078;-74
2022/12/20 04:04:47;;;;;;;1999.90;999.90;;;12.90;99.90;;;;;;5051723;28;20512;-74
2022/12/20 04:07:12;;;;;;;1999.90;999.90;;;12.90;99.90;;;;;;5051798;28;20111;-75
2022/12/20 04:09:38;;;;;;;1999.90;999.90;;;12.80;99.90;;;;;;5051891;28;20044;-74
2022/12/20 04:12:04;;;;;;;1999.90;999.90;;;12.90;99.90;;;;;;5051700;28;20370;-74
2022/12/20 04:14:29;;;;;;;1999.90;999.90;;;12.80;99.90;;;;;;5051955;28;20032;-74
2022/12/20 04:16:55;;;;;;;1999.90;999.90;;;12.80;99.90;;;;;;5051049;28;20502;-74
2022/12/20 04:19:21;;;;;;;1999.90;999.90;;;12.90;99.90;;;;;;5051073;28;20040;-74
2022/12/20 04:21:46;;;;;;;1999.90;999.90;;;12.90;99.90;;;;;;5051549;28;20493;-74
2022/12/20 04:24:12;;;;;;;1999.90;999.90;;;12.90;99.90;;;;;;5051942;28;20067;-75
2022/12/20 04:26:37;;;;;;;1999.90;999.90;;;12.80;99.90;;;;;;5052511;28;20032;-79
2022/12/20 04:29:03;;;;;;;1999.90;999.90;;;12.80;99.90;;;;;;5051981;28;20035;-74
2022/12/20 04:31:29;;;;;;;1999.90;999.90;;;12.80;99.90;;;;;;5051670;28;20557;-75
2022/12/20 04:33:54;;;;;;;1999.90;999.90;;;12.70;99.90;;;;;;5051975;28;20035;-74
2022/12/20 04:36:20;;;;;;;1999.90;999.90;;;12.80;99.90;;;;;;5053981;28;20025;-79
2022/12/20 04:38:46;;;;;;;1999.90;999.90;;;12.70;99.90;;;;;;5054464;28;20032;-79
2022/12/20 04:41:20;;;;;;;1999.90;999.90;;;12.70;99.90;;;;;;5051210;28;20024;-75
2022/12/20 04:43:50;;;;;;;1999.90;999.90;;;12.70;99.90;;;;;;5051674;28;20029;-74
2022/12/20 04:46:17;;;;;;;1999.90;999.90;;;12.70;99.90;;;;;;5051588;28;20044;-74
2022/12/20 04:48:42;;;;;;;1999.90;999.90;;;12.70;99.90;;;;;;5051209;28;20060;-74
2022/12/20 04:51:08;;;;;;;1999.90;999.90;;;12.70;99.90;;;;;;5051287;28;20063;-74
2022/12/20 04:53:49;;;;;;;1999.90;999.90;;;12.70;99.90;;;;;;5050956;28;20036;-75
2022/12/20 04:56:25;;;;;;;1999.90;999.90;;;12.70;99.90;;;;;;5055842;28;20511;-75
2022/12/20 04:58:53;;;;;;;1999.90;999.90;;;12.70;99.90;;;;;;5054876;28;20024;-74
2022/12/20 05:01:19;;;;;;;1999.90;999.90;;;12.70;99.90;;;;;;5055177;28;20017;-74
2022/12/20 05:03:45;;;;;;;1999.90;999.90;;;12.70;99.90;;;;;;5055295;28;20057;-74
2022/12/20 05:06:11;;;;;;;1999.90;999.90;;;12.70;99.90;;;;;;5055430;28;20017;-74
2022/12/20 05:08:37;;;;;;;1999.90;999.90;;;12.60;99.90;;;;;;5055169;28;20472;-74
2022/12/20 05:11:03;;;;;;;1999.90;999.90;;;12.50;99.90;;;;;;5053554;28;20037;-74
2022/12/20 05:13:29;;;;;;;1999.90;999.90;;;12.50;99.90;;;;;;5053336;28;20036;-74
2022/12/20 05:15:56;;;;;;;1999.90;999.90;;;12.50;99.90;;;;;;5055326;28;20100;-74
2022/12/20 05:18:22;;;;;;;1999.90;999.90;;;12.40;99.90;;;;;;5056096;28;20025;-79
2022/12/20 05:26:15;;;;;;;1999.90;999.90;;;12.50;99.90;;;;;;5054749;28;20029;-74
2022/12/20 05:26:18;;;;;;;1999.90;999.90;;;12.50;99.90;;;;;;5055135;28;20036;-76
2022/12/20 05:28:43;;;;;;;1999.90;999.90;;;12.50;99.90;;;;;;5055387;28;20029;-75
2022/12/20 05:31:09;;;;;;;1999.90;999.90;;;12.50;99.90;;;;;;5054827;28;20059;-78
2022/12/20 05:33:34;;;;;;;1999.90;999.90;;;12.50;99.90;;;;;;5055546;28;20464;-75
2022/12/20 05:36:00;;;;;;;1999.90;999.90;;;12.50;99.90;;;;;;5054810;28;20025;-74
2022/12/20 05:38:26;;;;;;;1999.90;999.90;;;12.50;99.90;;;;;;5054140;28;20033;-78
2022/12/20 05:40:51;;;;;;;1999.90;999.90;;;12.50;99.90;;;;;;5045115;28;20021;-74
2022/12/20 05:43:18;;;;;;;1999.90;999.90;;;12.60;99.90;;;;;;5051924;28;20029;-75
2022/12/20 05:45:49;;;;;;;1999.90;999.90;;;12.70;99.90;;;;;;5054150;28;20029;-75
2022/12/20 05:48:16;;;;;;;1999.90;999.90;;;12.70;99.90;;;;;;5054525;28;20029;-74
2022/12/20 05:50:45;;;;;;;1999.90;999.90;;;12.70;99.90;;;;;;5053561;28;20451;-74
2022/12/20 05:53:12;;;;;;;1999.90;999.90;;;12.60;99.90;;;;;;5049423;28;20033;-74
2022/12/20 05:55:43;;;;;;;1999.90;999.90;;;12.70;99.90;;;;;;5035706;28;20021;-78
2022/12/20 05:58:12;;;;;;;1999.90;999.90;;;12.60;99.90;;;;;;5039537;28;20447;-75
2022/12/20 06:00:39;;;;;;;1999.90;999.90;;;12.70;99.90;;;;;;5041277;28;20021;-74
2022/12/20 06:03:05;;;;;;;1999.90;999.90;;;12.70;99.90;;;;;;5054090;28;20056;-78
2022/12/20 06:05:31;;;;;;;1999.90;999.90;;;12.80;99.90;;;;;;5053549;28;20029;-74
2022/12/20 06:07:57;;;;;;;1999.90;999.90;;;12.80;99.90;;;;;;5054026;28;20566;-74
2022/12/20 06:10:23;;;;;;;1999.90;999.90;;;12.80;99.90;;;;;;5056510;28;20484;-78
2022/12/20 06:12:49;;;;;;;1999.90;999.90;;;12.80;99.90;;;;;;5052446;28;20511;-74
2022/12/20 06:15:14;;;;;;;1999.90;999.90;;;12.70;99.90;;;;;;5053888;28;20021;-76
2022/12/20 06:17:40;;;;;;;1999.90;999.90;;;12.70;99.90;;;;;;5055623;28;20021;-74
2022/12/20 06:20:07;;;;;;;1999.90;999.90;;;12.70;99.90;;;;;;5053194;28;20099;-74
2022/12/20 06:22:32;;;;;;;1999.90;999.90;;;12.70;99.90;;;;;;5053666;28;20029;-74
2022/12/20 06:24:58;;;;;;;1999.90;999.90;;;12.70;99.90;;;;;;5035403;28;20521;-74
2022/12/20 06:27:24;;;;;;;1999.90;999.90;;;12.70;99.90;;;;;;5052995;28;20515;-74
2022/12/20 06:29:53;;;;;;;1999.90;999.90;;;12.70;99.90;;;;;;5053682;28;20025;-74
2022/12/20 06:32:19;;;;;;;1999.90;999.90;;;12.70;99.90;;;;;;5054350;28;20021;-75
2022/12/20 06:34:45;;;;;;;1999.90;999.90;;;12.80;99.90;;;;;;5052874;28;20021;-77
2022/12/20 06:37:11;;;;;;;1999.90;999.90;;;12.80;99.90;;;;;;5049835;28;20483;-76
2022/12/20 06:39:36;;;;;;;1999.90;999.90;;;12.80;99.90;;;;;;5050828;28;20032;-74
2022/12/20 06:42:02;;;;;;;1999.90;999.90;;;12.80;99.90;;;;;;5049737;28;20435;-74
2022/12/20 06:44:28;;;;;;;1999.90;999.90;;;12.80;99.90;;;;;;5053087;28;20395;-74
2022/12/20 06:46:54;;;;;;;1999.90;999.90;;;12.80;99.90;;;;;;5048173;28;20043;-77
2022/12/20 06:49:21;;;;;;;1999.90;999.90;;;12.90;99.90;;;;;;5049329;28;20025;-80
2022/12/20 06:51:47;;;;;;;1999.90;999.90;;;12.90;99.90;;;;;;5054630;28;20527;-74
2022/12/20 06:54:13;;;;;;;1999.90;999.90;;;12.90;99.90;;;;;;5052174;28;20143;-74
2022/12/20 06:56:38;;;;;;;1999.90;999.90;;;12.90;99.90;;;;;;5052343;28;20021;-76
2022/12/20 06:59:04;;;;;;;1999.90;999.90;;;13.00;99.90;;;;;;5051039;28;20025;-75
2022/12/20 07:01:30;;;;;;;1999.90;999.90;;;12.90;99.90;;;;;;5051966;28;20116;-74
2022/12/20 07:03:56;;;;;;;1999.90;999.90;;;12.80;99.90;;;;;;5052107;28;20496;-74
2022/12/20 07:06:22;;;;;;;1999.90;999.90;;;12.70;99.90;;;;;;5067640;28;20463;-74
2022/12/20 07:08:47;;;;;;;1999.90;999.90;;;12.60;99.90;;;;;;5071936;28;20029;-73
2022/12/20 07:11:13;;;;;;;1999.90;999.90;;;12.50;99.90;;;;;;5071184;28;20064;-76
2022/12/20 07:13:38;;;;;;;1999.90;999.90;;;12.60;99.90;;;;;;5073617;28;20025;-74
2022/12/20 07:16:05;;;;;;;1999.90;999.90;;;12.50;99.90;;;;;;5066025;28;20045;-75
2022/12/20 07:18:31;;;;;;;1999.90;999.90;;;12.40;99.90;;;;;;5051971;28;20135;-74
2022/12/20 07:21:01;;;;;;;1999.90;999.90;;;12.40;99.90;;;;;;5048821;28;20035;-74
2022/12/20 07:23:27;;;;;;;1999.90;999.90;;;12.40;99.90;;;;;;5070730;28;20031;-78
2022/12/20 07:25:54;;;;;;;1999.90;999.90;;;12.50;99.90;;;;;;5051308;28;20104;-75
2022/12/20 07:28:20;;;;;;;1999.90;999.90;;;12.50;99.90;;;;;;5055745;28;20402;-75
2022/12/20 07:30:46;;;;;;;1999.90;999.90;;;12.50;99.90;;;;;;5069561;28;20031;-75
2022/12/20 07:33:11;;;;;;;1999.90;999.90;;;12.60;99.90;;;;;;5070286;28;20025;-76
2022/12/20 07:35:37;;;;;;;1999.90;999.90;;;12.60;99.90;;;;;;5064304;28;20032;-73
2022/12/20 07:38:02;;;;;;;1999.90;999.90;;;12.60;99.90;;;;;;5050022;28;20055;-76
2022/12/20 07:40:28;;;;;;;1999.90;999.90;;;12.70;99.90;;;;;;5057934;28;20033;-77
2022/12/20 07:42:54;;;;;;;1999.90;999.90;;;12.70;99.90;;;;;;5048642;28;20033;-74
2022/12/20 07:45:19;;;;;;;1999.90;999.90;;;12.70;99.90;;;;;;5056073;28;20024;-74
2022/12/20 07:47:45;;;;;;;1999.90;999.90;;;12.70;99.90;;;;;;5069887;28;20112;-74
2022/12/20 07:50:10;;;;;;;1999.90;999.90;;;12.70;99.90;;;;;;5070144;28;20078;-77
2022/12/20 07:52:38;;;;;;;1999.90;999.90;;;12.80;99.90;;;;;;5058102;28;20111;-76
2022/12/20 07:55:07;;;;;;;1999.90;999.90;;;12.80;99.90;;;;;;5053477;28;20071;-75
2022/12/20 07:57:51;;;;;;;1999.90;999.90;;;12.80;99.90;;;;;;5048713;28;20066;-74
2022/12/20 08:00:17;;;;;;;1999.90;999.90;;;12.70;99.90;;;;;;5054940;28;20033;-73
2022/12/20 08:02:47;;;;;;;1999.90;999.90;;;12.80;99.90;;;;;;5069039;28;20035;-74
2022/12/20 08:05:14;;;;;;;1999.90;999.90;;;12.80;99.90;;;;;;5068600;28;20067;-77
2022/12/20 08:07:41;;;;;;;1999.90;999.90;;;12.80;99.90;;;;;;5048106;28;20043;-74
2022/12/20 08:10:09;;;;;;;1999.90;999.90;;;12.80;99.90;;;;;;5049074;28;20079;-74
2022/12/20 08:12:35;;;;;;;1999.90;999.90;;;12.80;99.90;;;;;;5061995;28;20029;-74
2022/12/20 08:15:01;;;;;;;1999.90;999.90;;;12.80;99.90;;;;;;5050719;28;20028;-73
2022/12/20 08:17:27;;;;;;;1999.90;999.90;;;12.90;99.90;;;;;;5048572;28;20032;-76
2022/12/20 08:19:52;;;;;;;1999.90;999.90;;;12.80;99.90;;;;;;5057038;28;20396;-77
2022/12/20 08:22:18;;;;;;;1999.90;999.90;;;12.80;99.90;;;;;;5054742;28;20031;-74
2022/12/20 08:24:44;;;;;;;1999.90;999.90;;;12.90;99.90;;;;;;5064926;28;20031;-74
2022/12/20 08:27:10;;;;;;;1999.90;999.90;;;12.90;99.90;;;;;;5048793;28;20032;-74
2022/12/20 08:29:36;;;;;;;1999.90;999.90;;;12.80;99.90;;;;;;5050268;28;20041;-76
2022/12/20 08:32:01;;;;;;;1999.90;999.90;;;12.80;99.90;;;;;;5057680;28;20025;-74
2022/12/20 08:34:27;;;;;;;1999.90;999.90;;;12.70;99.90;;;;;;5056182;28;20057;-73
2022/12/20 08:36:53;;;;;;;1999.90;999.90;;;12.70;99.90;;;;;;5052653;28;20037;-74
2022/12/20 08:39:19;;;;;;;1999.90;999.90;;;12.70;99.90;;;;;;5052158;28;20916;-78
2022/12/20 08:41:44;;;;;;;1999.90;999.90;;;12.60;99.90;;;;;;5051784;28;20081;-74
2022/12/20 08:44:10;;;;;;;1999.90;999.90;;;12.60;99.90;;;;;;5048734;28;20036;-77
2022/12/20 08:46:36;;;;;;;1999.90;999.90;;;12.60;99.90;;;;;;5053161;28;20071;-74
2022/12/20 08:49:03;;;;;;;1999.90;999.90;;;12.70;99.90;;;;;;5051027;28;20131;-74
2022/12/20 08:51:29;;;;;;;1999.90;999.90;;;12.70;99.90;;;;;;5048870;28;20040;-74
2022/12/20 08:53:55;;;;;;;1999.90;999.90;;;12.80;99.90;;;;;;5051520;28;20033;-74
2022/12/20 08:56:20;;;;;;;1999.90;999.90;;;12.80;99.90;;;;;;5053769;28;20537;-76
2022/12/20 08:58:46;;;;;;;1999.90;999.90;;;12.80;99.90;;;;;;5049857;28;20071;-77
2022/12/20 09:01:18;;;;;;;1999.90;999.90;;;12.90;99.90;;;;;;5046130;28;20037;-77
2022/12/20 09:03:45;;;;;;;1999.90;999.90;;;12.80;99.90;;;;;;5056007;28;20049;-74
2022/12/20 09:06:17;;;;;;;1999.90;999.90;;;12.90;99.90;;;;;;5049707;28;20434;-74
2022/12/20 09:08:43;;;;;;;1999.90;999.90;;;12.90;99.90;;;;;;5053281;28;20029;-75
2022/12/20 09:11:12;;;;;;;1999.90;999.90;;;12.80;99.90;;;;;;5051702;28;20377;-78
2022/12/20 09:13:40;;;;;;;1999.90;999.90;;;12.80;99.90;;;;;;5052319;28;20069;-74
2022/12/20 09:16:07;;;;;;;1999.90;999.90;;;12.80;99.90;;;;;;5050083;28;20074;-74
2022/12/20 09:18:33;;;;;;;1999.90;999.90;;;12.80;99.90;;;;;;5049242;28;20128;-74
2022/12/20 09:21:00;;;;;;;1999.90;999.90;;;12.90;99.90;;;;;;5049776;28;20029;-74
2022/12/20 09:23:26;;;;;;;1999.90;999.90;;;12.90;99.90;;;;;;5053598;28;20040;-77
2022/12/20 09:25:52;;;;;;;1999.90;999.90;;;12.90;99.90;;;;;;5049570;28;20093;-76
2022/12/20 09:28:17;;;;;;;1999.90;999.90;;;12.90;99.90;;;;;;5048094;28;20488;-74
2022/12/20 09:30:43;;;;;;;1999.90;999.90;;;13.00;99.90;;;;;;5049368;28;20025;-73
2022/12/20 09:33:09;;;;;;;1999.90;999.90;;;13.00;99.90;;;;;;5050568;28;20052;-74
2022/12/20 09:35:34;;;;;;;1999.90;999.90;;;13.10;99.90;;;;;;5056082;28;20037;-76
2022/12/20 09:38:00;;;;;;;1999.90;999.90;;;13.10;99.90;;;;;;5051076;28;20017;-76
2022/12/20 09:40:29;;;;;;;1999.90;999.90;;;13.10;99.90;;;;;;5046586;28;20069;-74
2022/12/20 09:42:55;;;;;;;1999.90;999.90;;;13.20;99.90;;;;;;5044289;28;20514;-74
2022/12/20 09:45:26;;;;;;;1999.90;999.90;;;13.20;99.90;;;;;;5050943;28;20040;-74
2022/12/20 09:47:51;;;;;;;1999.90;999.90;;;13.30;99.90;;;;;;5050865;28;20523;-76
2022/12/20 09:50:19;;;;;;;1999.90;999.90;;;13.40;99.90;;;;;;5051857;28;20112;-78
2022/12/20 09:53:07;;;;;;;1999.90;999.90;;;13.40;99.90;;;;;;5051556;28;20065;-74
2022/12/20 09:55:32;;;;;;;1999.90;999.90;;;13.40;99.90;;;;;;5052946;28;20396;-73
2022/12/20 09:58:20;;;;;;;1999.90;999.90;;;13.40;99.90;;;;;;5051593;28;20505;-74
2022/12/20 10:00:47;;;;;;;1999.90;999.90;;;13.40;99.90;;;;;;5070844;28;20040;-75
2022/12/20 10:03:20;;;;;;;1999.90;999.90;;;13.40;99.90;;;;;;5071595;28;20033;-74
2022/12/20 10:05:54;;;;;;;1999.90;999.90;;;13.30;99.90;;;;;;5053855;28;20057;-76
2022/12/20 10:08:19;;;;;;;1999.90;999.90;;;13.30;99.90;;;;;;5050874;28;20067;-74
2022/12/20 10:10:56;;;;;;;1999.90;999.90;;;13.30;99.90;;;;;;5064951;28;20060;-76
2022/12/20 10:13:54;;;;;;;1999.90;999.90;;;13.30;99.90;;;;;;5055521;28;20018;-74
2022/12/20 10:16:36;;;;;;;1999.90;999.90;;;13.30;99.90;;;;;;5050945;28;20024;-74
2022/12/20 10:19:10;;;;;;;1999.90;999.90;;;13.30;99.90;;;;;;5058241;28;20032;-74
2022/12/20 10:22:02;;;;;;;1999.90;999.90;;;13.30;99.90;;;;;;5042247;28;20193;-74
2022/12/20 10:24:33;;;;;;;1999.90;999.90;;;13.30;99.90;;;;;;5045758;28;20109;-74
2022/12/20 10:27:17;;;;;;;1999.90;999.90;;;13.40;99.90;;;;;;5040791;28;20080;-74
2022/12/20 10:29:43;;;;;;;1999.90;999.90;;;13.40;99.90;;;;;;5040191;28;20025;-75
2022/12/20 10:32:15;;;;;;;1999.90;999.90;;;13.40;99.90;;;;;;5050040;28;20021;-78
2022/12/20 10:35:10;;;;;;;1999.90;999.90;;;13.40;99.90;;;;;;5051508;28;20024;-79
2022/12/20 10:37:37;;;;;;;1999.90;999.90;;;13.30;99.90;;;;;;5039376;28;20147;-75
2022/12/20 10:40:03;;;;;;;1999.90;999.90;;;13.30;99.90;;;;;;5056362;28;20050;-75
2022/12/20 10:42:38;;;;;;;1999.90;999.90;;;13.20;99.90;;;;;;5059528;28;20033;-78
2022/12/20 10:45:20;;;;;;;1999.90;999.90;;;13.20;99.90;;;;;;5054667;28;20491;-75
2022/12/20 10:47:50;;;;;;;1999.90;999.90;;;13.20;99.90;;;;;;5048021;28;20044;-75
2022/12/20 10:50:21;;;;;;;1999.90;999.90;;;13.20;99.90;;;;;;5049833;28;20052;-77
2022/12/20 10:53:17;;;;;;;1999.90;999.90;;;13.20;99.90;;;;;;5051715;28;20025;-76
2022/12/20 10:55:43;;;;;;;1999.90;999.90;;;13.20;99.90;;;;;;5047669;28;20036;-76
2022/12/20 10:58:11;;;;;;;1999.90;999.90;;;13.20;99.90;;;;;;5052150;28;20111;-75
2022/12/20 11:00:37;;;;;;;1999.90;999.90;;;13.20;99.90;;;;;;5050388;28;20021;-79
2022/12/20 11:03:19;;;;;;;1999.90;999.90;;;13.20;99.90;;;;;;5049894;28;20032;-76
2022/12/20 11:06:02;;;;;;;1999.90;999.90;;;13.20;99.90;;;;;;5049970;28;20041;-76
2022/12/20 11:08:31;;;;;;;1999.90;999.90;;;13.20;99.90;;;;;;5052597;28;20021;-78
2022/12/20 11:11:23;;;;;;;1999.90;999.90;;;13.30;99.90;;;;;;5052496;28;20059;-78
2022/12/20 11:13:50;;;;;;;1999.90;999.90;;;13.30;99.90;;;;;;5044078;28;20193;-75
2022/12/20 11:16:28;;;;;;;1999.90;999.90;;;13.40;99.90;;;;;;5049880;28;20025;-75
2022/12/20 11:19:13;;;;;;;1999.90;999.90;;;13.40;99.90;;;;;;5050212;28;20494;-77
2022/12/20 11:21:39;;;;;;;1999.90;999.90;;;13.50;99.90;;;;;;5050936;28;20025;-77
2022/12/20 11:24:13;;;;;;;1999.90;999.90;;;13.50;99.90;;;;;;5049930;28;20112;-77
2022/12/20 11:26:51;;;;;;;1999.90;999.90;;;13.40;99.90;;;;;;5040159;28;20032;-75
2022/12/20 11:29:28;;;;;;;1999.90;999.90;;;13.40;99.90;;;;;;5030982;28;20663;-75
2022/12/20 11:32:06;;;;;;;1999.90;999.90;;;13.40;99.90;;;;;;5049427;28;20032;-77
2022/12/20 11:35:05;;;;;;;1999.90;999.90;;;13.50;99.90;;;;;;5047507;28;20032;-76
2022/12/20 11:37:51;;;;;;;1999.90;999.90;;;13.50;99.90;;;;;;5061421;28;20063;-76
2022/12/20 11:40:31;;;;;;;1999.90;999.90;;;13.60;99.90;;;;;;5048599;28;20080;-76
2022/12/20 11:43:40;;;;;;;1999.90;999.90;;;13.50;99.90;;;;;;5048647;28;20396;-75
2022/12/20 11:46:21;;;;;;;1999.90;999.90;;;13.40;99.90;;;;;;5001436;28;20092;-77
2022/12/20 11:49:03;;;;;;;1999.90;999.90;;;13.40;99.90;;;;;;4978847;28;20189;-75
2022/12/20 11:51:41;;;;;;;1999.90;999.90;;;13.40;99.90;;;;;;4998449;28;20160;-75
2022/12/20 11:54:18;;;;;;;1999.90;999.90;;;13.30;99.90;;;;;;5009657;28;20216;-78
2022/12/20 11:56:46;;;;;;;1999.90;999.90;;;13.20;99.90;;;;;;5011656;28;20532;-75
2022/12/20 11:59:35;;;;;;;1999.90;999.90;;;13.10;99.90;;;;;;5003760;28;20220;-76
2022/12/20 12:02:14;;;;;;;1999.90;999.90;;;13.10;99.90;;;;;;4999163;28;20030;-77
2022/12/20 12:04:50;;;;;;;1999.90;999.90;;;13.10;99.90;;;;;;5003306;28;20029;-75
2022/12/20 12:07:30;;;;;;;1999.90;999.90;;;13.20;99.90;;;;;;5006645;28;20533;-76
2022/12/20 12:10:11;;;;;;;1999.90;999.90;;;13.20;99.90;;;;;;5023017;28;20489;-75
2022/12/20 12:12:41;;;;;;;1999.90;999.90;;;13.30;99.90;;;;;;5006369;28;22008;-77
2022/12/20 12:15:35;;;;;;;1999.90;999.90;;;13.30;99.90;;;;;;5005741;28;20030;-75